createdAt,value
2018-07-16T00:00:24.325Z,1022.81
2018-07-16T00:01:24.908Z,1022.77
2018-07-16T00:02:25.489Z,1022.86
2018-07-16T00:03:26.068Z,1022.90
2018-07-16T00:04:26.649Z,1022.94
2018-07-16T00:05:27.224Z,1022.90
2018-07-16T00:06:27.803Z,1022.86
2018-07-16T00:07:28.432Z,1022.88
2018-07-16T00:08:29.061Z,1022.86
2018-07-16T00:09:29.693Z,1022.90
2018-07-16T00:10:30.270Z,1022.89
2018-07-16T00:11:30.846Z,1022.94
2018-07-16T00:12:31.426Z,1023.00
2018-07-16T00:13:32.009Z,1022.95
2018-07-16T00:14:32.604Z,1022.99
2018-07-16T00:15:33.209Z,1023.00
2018-07-16T00:16:33.788Z,1023.02
2018-07-16T00:17:34.368Z,1022.99
2018-07-16T00:18:34.993Z,1022.99
2018-07-16T00:19:35.570Z,1023.02
2018-07-16T00:20:36.154Z,1023.05
2018-07-16T00:21:36.735Z,1023.10
2018-07-16T00:22:37.317Z,1023.06
2018-07-16T00:23:37.895Z,1023.08
2018-07-16T00:24:38.478Z,1023.12
2018-07-16T00:25:39.054Z,1023.06
2018-07-16T00:26:39.689Z,1023.05
2018-07-16T00:27:40.264Z,1023.07
2018-07-16T00:28:40.850Z,1023.10
2018-07-16T00:29:41.427Z,1023.06
2018-07-16T00:30:42.008Z,1023.09
2018-07-16T00:31:42.639Z,1023.12
2018-07-16T00:32:43.221Z,1023.06
2018-07-16T00:33:43.849Z,1023.09
2018-07-16T00:34:44.430Z,1022.99
2018-07-16T00:35:45.005Z,1023.08
2018-07-16T00:36:45.685Z,1023.04
2018-07-16T00:37:46.261Z,1023.03
2018-07-16T00:38:46.887Z,1023.01
2018-07-16T00:39:47.467Z,1022.97
2018-07-16T00:40:48.043Z,1022.96
2018-07-16T00:41:48.625Z,1022.99
2018-07-16T00:42:49.208Z,1023.00
2018-07-16T00:43:49.788Z,1023.03
2018-07-16T00:44:50.367Z,1023.00
2018-07-16T00:45:50.945Z,1023.04
2018-07-16T00:46:51.573Z,1023.01
2018-07-16T00:47:52.149Z,1023.04
2018-07-16T00:48:52.727Z,1023.08
2018-07-16T00:49:53.311Z,1023.01
2018-07-16T00:50:53.888Z,1023.11
2018-07-16T00:51:54.520Z,1023.06
2018-07-16T00:52:55.096Z,1023.05
2018-07-16T00:53:55.715Z,1022.99
2018-07-16T00:54:56.342Z,1023.04
2018-07-16T00:55:57.018Z,1023.04
2018-07-16T00:56:57.599Z,1023.13
2018-07-16T00:57:58.175Z,1023.05
2018-07-16T00:58:58.758Z,1023.14
2018-07-16T00:59:59.344Z,1023.06
2018-07-16T01:00:59.966Z,1023.11
2018-07-16T01:02:00.547Z,1023.14
2018-07-16T01:03:01.120Z,1023.10
2018-07-16T01:04:01.701Z,1023.16
2018-07-16T01:05:02.285Z,1023.12
2018-07-16T01:06:02.860Z,1023.18
2018-07-16T01:07:03.447Z,1023.12
2018-07-16T01:08:04.108Z,1023.17
2018-07-16T01:09:04.655Z,1023.09
2018-07-16T01:10:05.282Z,1023.19
2018-07-16T01:11:05.869Z,1023.16
2018-07-16T01:12:06.450Z,1023.18
2018-07-16T01:13:07.071Z,1023.21
2018-07-16T01:14:07.702Z,1023.22
2018-07-16T01:15:08.332Z,1023.23
2018-07-16T01:16:08.916Z,1023.16
2018-07-16T01:17:09.485Z,1023.22
2018-07-16T01:18:10.069Z,1023.23
2018-07-16T01:19:10.648Z,1023.20
2018-07-16T01:20:11.230Z,1023.19
2018-07-16T01:21:11.812Z,1023.12
2018-07-16T01:22:12.386Z,1023.20
2018-07-16T01:23:12.964Z,1023.19
2018-07-16T01:24:13.545Z,1023.15
2018-07-16T01:25:14.119Z,1023.22
2018-07-16T01:26:14.751Z,1023.19
2018-07-16T01:27:15.332Z,1023.14
2018-07-16T01:28:15.913Z,1023.19
2018-07-16T01:29:16.544Z,1023.13
2018-07-16T01:30:17.123Z,1023.13
2018-07-16T01:31:17.698Z,1023.18
2018-07-16T01:32:18.278Z,1023.18
2018-07-16T01:33:18.862Z,1023.16
2018-07-16T01:34:19.477Z,1023.21
2018-07-16T01:35:20.058Z,1023.14
2018-07-16T01:36:20.677Z,1023.19
2018-07-16T01:37:21.305Z,1023.17
2018-07-16T01:38:21.877Z,1023.16
2018-07-16T01:39:22.454Z,1023.16
2018-07-16T01:40:23.037Z,1023.11
2018-07-16T01:41:23.669Z,1023.07
2018-07-16T01:42:24.250Z,1023.04
2018-07-16T01:43:24.879Z,1023.09
2018-07-16T01:44:25.460Z,1023.11
2018-07-16T01:45:26.041Z,1023.11
2018-07-16T01:46:26.664Z,1023.11
2018-07-16T01:47:27.246Z,1023.10
2018-07-16T01:48:27.874Z,1023.15
2018-07-16T01:49:28.454Z,1023.06
2018-07-16T01:50:29.034Z,1023.10
2018-07-16T01:51:29.609Z,1023.12
2018-07-16T01:52:30.191Z,1023.17
2018-07-16T01:53:30.777Z,1023.07
2018-07-16T01:54:31.352Z,1023.12
2018-07-16T01:55:31.935Z,1023.12
2018-07-16T01:56:32.567Z,1023.03
2018-07-16T01:57:33.154Z,1023.03
2018-07-16T01:58:33.725Z,1023.06
2018-07-16T01:59:34.310Z,1023.05
2018-07-16T02:00:34.889Z,1023.08
2018-07-16T02:01:35.466Z,1023.03
2018-07-16T02:02:36.049Z,1023.08
2018-07-16T02:03:36.629Z,1023.02
2018-07-16T02:04:37.210Z,1023.05
2018-07-16T02:05:37.792Z,1023.05
2018-07-16T02:06:38.419Z,1023.12
2018-07-16T02:07:39.052Z,1023.11
2018-07-16T02:08:39.632Z,1023.03
2018-07-16T02:09:40.206Z,1022.99
2018-07-16T02:10:40.787Z,1023.03
2018-07-16T02:11:41.370Z,1022.99
2018-07-16T02:12:41.953Z,1022.97
2018-07-16T02:13:42.580Z,1022.95
2018-07-16T02:14:43.160Z,1022.96
2018-07-16T02:15:43.737Z,1023.00
2018-07-16T02:16:44.365Z,1022.98
2018-07-16T02:17:44.944Z,1022.87
2018-07-16T02:18:45.524Z,1022.97
2018-07-16T02:19:46.104Z,1022.91
2018-07-16T02:20:46.688Z,1022.91
2018-07-16T02:21:47.316Z,1022.90
2018-07-16T02:22:47.897Z,1022.92
2018-07-16T02:23:48.478Z,1022.89
2018-07-16T02:24:49.051Z,1023.01
2018-07-16T02:25:49.636Z,1022.98
2018-07-16T02:26:50.214Z,1022.99
2018-07-16T02:27:50.789Z,1022.92
2018-07-16T02:28:51.420Z,1022.93
2018-07-16T02:29:51.996Z,1022.87
2018-07-16T02:30:52.576Z,1022.81
2018-07-16T02:31:53.207Z,1022.82
2018-07-16T02:32:53.781Z,1022.77
2018-07-16T02:33:54.363Z,1022.79
2018-07-16T02:34:54.943Z,1022.85
2018-07-16T02:35:55.520Z,1022.76
2018-07-16T02:36:56.153Z,1022.82
2018-07-16T02:37:56.734Z,1022.83
2018-07-16T02:38:57.309Z,1022.89
2018-07-16T02:39:57.893Z,1022.92
2018-07-16T02:40:58.468Z,1022.84
2018-07-16T02:41:59.052Z,1022.83
2018-07-16T02:42:59.639Z,1022.86
2018-07-16T02:44:00.208Z,1022.80
2018-07-16T02:45:00.841Z,1022.84
2018-07-16T02:46:01.423Z,1022.88
2018-07-16T02:47:01.997Z,1022.84
2018-07-16T02:48:02.585Z,1022.77
2018-07-16T02:49:03.210Z,1022.82
2018-07-16T02:50:03.793Z,1022.77
2018-07-16T02:51:04.371Z,1022.80
2018-07-16T02:52:05.145Z,1022.79
2018-07-16T02:53:05.725Z,1022.81
2018-07-16T02:54:06.306Z,1022.89
2018-07-16T02:55:06.885Z,1022.78
2018-07-16T02:56:07.514Z,1022.79
2018-07-16T02:57:08.087Z,1022.85
2018-07-16T02:58:08.672Z,1022.81
2018-07-16T02:59:09.241Z,1022.77
2018-07-16T03:00:09.877Z,1022.78
2018-07-16T03:01:10.453Z,1022.78
2018-07-16T03:02:11.039Z,1022.85
2018-07-16T03:03:11.669Z,1022.75
2018-07-16T03:04:12.248Z,1022.78
2018-07-16T03:05:12.826Z,1022.78
2018-07-16T03:06:13.405Z,1022.76
2018-07-16T03:07:13.979Z,1022.82
2018-07-16T03:08:14.556Z,1022.79
2018-07-16T03:09:15.134Z,1022.78
2018-07-16T03:10:15.717Z,1022.80
2018-07-16T03:11:16.294Z,1022.80
2018-07-16T03:12:16.917Z,1022.75
2018-07-16T03:13:17.458Z,1022.78
2018-07-16T03:14:18.036Z,1022.80
2018-07-16T03:15:18.660Z,1022.78
2018-07-16T03:16:19.244Z,1022.87
2018-07-16T03:17:19.819Z,1022.86
2018-07-16T03:18:20.450Z,1022.90
2018-07-16T03:19:21.033Z,1022.88
2018-07-16T03:20:21.611Z,1022.92
2018-07-16T03:21:22.237Z,1022.87
2018-07-16T03:22:22.815Z,1022.91
2018-07-16T03:23:23.396Z,1022.95
2018-07-16T03:24:24.026Z,1022.92
2018-07-16T03:25:24.603Z,1022.87
2018-07-16T03:26:25.184Z,1022.88
2018-07-16T03:27:25.767Z,1022.90
2018-07-16T03:28:26.348Z,1022.95
2018-07-16T03:29:26.922Z,1022.86
2018-07-16T03:30:27.509Z,1022.89
2018-07-16T03:31:28.084Z,1022.89
2018-07-16T03:32:28.664Z,1022.89
2018-07-16T03:33:29.289Z,1022.84
2018-07-16T03:34:29.873Z,1022.82
2018-07-16T03:35:30.450Z,1022.80
2018-07-16T03:36:31.081Z,1022.85
2018-07-16T03:37:31.659Z,1022.91
2018-07-16T03:38:32.240Z,1022.80
2018-07-16T03:39:32.862Z,1022.82
2018-07-16T03:40:33.538Z,1022.90
2018-07-16T03:41:34.114Z,1022.89
2018-07-16T03:42:34.693Z,1022.91
2018-07-16T03:43:35.271Z,1022.88
2018-07-16T03:44:35.851Z,1022.89
2018-07-16T03:45:36.431Z,1022.87
2018-07-16T03:46:37.007Z,1022.86
2018-07-16T03:47:37.588Z,1022.83
2018-07-16T03:48:38.260Z,1022.92
2018-07-16T03:49:38.841Z,1022.78
2018-07-16T03:50:39.420Z,1022.87
2018-07-16T03:51:40.001Z,1022.91
2018-07-16T03:52:40.581Z,1022.85
2018-07-16T03:53:41.157Z,1022.88
2018-07-16T03:54:41.787Z,1022.80
2018-07-16T03:55:42.458Z,1022.81
2018-07-16T03:56:42.988Z,1022.84
2018-07-16T03:57:43.564Z,1022.86
2018-07-16T03:58:44.147Z,1022.84
2018-07-16T03:59:44.726Z,1022.90
2018-07-16T04:00:45.309Z,1022.88
2018-07-16T04:01:45.889Z,1022.88
2018-07-16T04:02:51.621Z,1022.88
2018-07-16T04:03:52.193Z,1022.92
2018-07-16T04:04:52.773Z,1022.90
2018-07-16T04:05:53.350Z,1022.94
2018-07-16T04:06:53.985Z,1022.98
2018-07-16T04:07:54.562Z,1022.92
2018-07-16T04:08:55.194Z,1022.92
2018-07-16T04:09:55.774Z,1022.85
2018-07-16T04:10:56.405Z,1022.92
2018-07-16T04:11:56.981Z,1022.88
2018-07-16T04:12:57.557Z,1022.86
2018-07-16T04:13:58.187Z,1022.86
2018-07-16T04:14:58.710Z,1022.91
2018-07-16T04:15:59.293Z,1022.87
2018-07-16T04:16:59.873Z,1022.83
2018-07-16T04:18:00.452Z,1022.79
2018-07-16T04:19:01.027Z,1022.88
2018-07-16T04:20:01.611Z,1022.85
2018-07-16T04:21:02.184Z,1022.85
2018-07-16T04:22:02.769Z,1022.83
2018-07-16T04:23:03.340Z,1022.86
2018-07-16T04:24:03.926Z,1022.94
2018-07-16T04:25:04.506Z,1022.78
2018-07-16T04:26:05.125Z,1022.92
2018-07-16T04:27:05.704Z,1022.94
2018-07-16T04:28:06.329Z,1022.95
2018-07-16T04:29:06.966Z,1022.99
2018-07-16T04:30:07.543Z,1022.92
2018-07-16T04:31:08.123Z,1022.95
2018-07-16T04:32:08.745Z,1022.99
2018-07-16T04:33:09.367Z,1022.99
2018-07-16T04:34:09.949Z,1022.97
2018-07-16T04:35:10.529Z,1022.97
2018-07-16T04:36:11.109Z,1023.01
2018-07-16T04:37:11.692Z,1023.09
2018-07-16T04:38:12.273Z,1023.03
2018-07-16T04:39:12.850Z,1023.09
2018-07-16T04:40:13.434Z,1023.05
2018-07-16T04:41:14.063Z,1023.09
2018-07-16T04:42:14.639Z,1023.06
2018-07-16T04:43:15.276Z,1023.02
2018-07-16T04:44:15.908Z,1022.94
2018-07-16T04:45:16.479Z,1023.00
2018-07-16T04:46:17.060Z,1022.97
2018-07-16T04:47:17.691Z,1022.96
2018-07-16T04:48:18.272Z,1023.06
2018-07-16T04:49:18.850Z,1023.01
2018-07-16T04:50:19.426Z,1023.04
2018-07-16T04:51:20.006Z,1023.00
2018-07-16T04:52:20.631Z,1023.01
2018-07-16T04:53:21.211Z,1023.00
2018-07-16T04:54:21.791Z,1023.01
2018-07-16T04:55:22.416Z,1023.06
2018-07-16T04:56:22.992Z,1023.03
2018-07-16T04:57:23.573Z,1023.02
2018-07-16T04:58:24.153Z,1023.01
2018-07-16T04:59:24.733Z,1023.07
2018-07-16T05:00:25.363Z,1023.09
2018-07-16T05:01:25.942Z,1023.06
2018-07-16T05:02:26.621Z,1023.03
2018-07-16T05:03:27.201Z,1023.05
2018-07-16T05:04:27.776Z,1023.11
2018-07-16T05:05:28.356Z,1023.08
2018-07-16T05:06:28.940Z,1023.15
2018-07-16T05:07:29.517Z,1023.03
2018-07-16T05:08:30.101Z,1023.02
2018-07-16T05:09:30.678Z,1023.03
2018-07-16T05:10:31.254Z,1023.05
2018-07-16T05:11:31.838Z,1023.07
2018-07-16T05:12:32.415Z,1023.16
2018-07-16T05:13:33.043Z,1023.16
2018-07-16T05:14:33.634Z,1023.22
2018-07-16T05:15:34.206Z,1023.16
2018-07-16T05:16:34.781Z,1023.26
2018-07-16T05:17:35.366Z,1023.25
2018-07-16T05:18:36.157Z,1023.20
2018-07-16T05:19:36.668Z,1023.20
2018-07-16T05:20:37.251Z,1023.19
2018-07-16T05:21:37.832Z,1023.20
2018-07-16T05:22:38.407Z,1023.20
2018-07-16T05:23:38.983Z,1023.21
2018-07-16T05:24:39.565Z,1023.15
2018-07-16T05:25:40.146Z,1023.31
2018-07-16T05:26:40.728Z,1023.38
2018-07-16T05:27:41.303Z,1023.29
2018-07-16T05:28:41.933Z,1023.34
2018-07-16T05:29:42.506Z,1023.34
2018-07-16T05:30:43.190Z,1023.38
2018-07-16T05:31:43.955Z,1023.38
2018-07-16T05:32:44.638Z,1023.41
2018-07-16T05:33:45.032Z,1023.42
2018-07-16T05:34:45.612Z,1023.42
2018-07-16T05:35:46.192Z,1023.42
2018-07-16T05:36:46.770Z,1023.34
2018-07-16T05:37:47.449Z,1023.32
2018-07-16T05:38:48.029Z,1023.42
2018-07-16T05:39:48.613Z,1023.30
2018-07-16T05:40:49.193Z,1023.42
2018-07-16T05:41:49.775Z,1023.40
2018-07-16T05:42:50.358Z,1023.37
2018-07-16T05:43:50.988Z,1023.28
2018-07-16T05:44:51.569Z,1023.37
2018-07-16T05:45:52.154Z,1023.31
2018-07-16T05:46:52.777Z,1023.45
2018-07-16T05:47:53.362Z,1023.36
2018-07-16T05:48:53.939Z,1023.39
2018-07-16T05:49:54.515Z,1023.43
2018-07-16T05:50:55.099Z,1023.33
2018-07-16T05:51:55.682Z,1023.40
2018-07-16T05:52:56.257Z,1023.43
2018-07-16T05:53:56.889Z,1023.38
2018-07-16T05:54:57.466Z,1023.50
2018-07-16T05:55:58.048Z,1023.51
2018-07-16T05:56:58.622Z,1023.38
2018-07-16T05:57:59.219Z,1023.45
2018-07-16T05:58:59.832Z,1023.39
2018-07-16T06:00:00.410Z,1023.47
2018-07-16T06:01:01.091Z,1023.44
2018-07-16T06:02:01.772Z,1023.35
2018-07-16T06:03:02.351Z,1023.44
2018-07-16T06:04:02.932Z,1023.37
2018-07-16T06:05:03.508Z,1023.42
2018-07-16T06:06:04.092Z,1023.40
2018-07-16T06:07:04.673Z,1023.38
2018-07-16T06:08:05.289Z,1023.43
2018-07-16T06:09:05.865Z,1023.41
2018-07-16T06:10:06.449Z,1023.52
2018-07-16T06:11:07.029Z,1023.48
2018-07-16T06:12:07.762Z,1023.45
2018-07-16T06:13:08.339Z,1023.52
2018-07-16T06:14:08.919Z,1023.46
2018-07-16T06:15:09.501Z,1023.50
2018-07-16T06:16:10.120Z,1023.56
2018-07-16T06:17:10.749Z,1023.54
2018-07-16T06:18:11.379Z,1023.55
2018-07-16T06:19:11.958Z,1023.58
2018-07-16T06:20:12.581Z,1023.55
2018-07-16T06:21:13.162Z,1023.58
2018-07-16T06:22:13.738Z,1023.59
2018-07-16T06:23:14.321Z,1023.56
2018-07-16T06:24:14.897Z,1023.55
2018-07-16T06:25:15.476Z,1023.52
2018-07-16T06:26:16.058Z,1023.51
2018-07-16T06:27:16.680Z,1023.56
2018-07-16T06:28:17.267Z,1023.58
2018-07-16T06:29:17.841Z,1023.52
2018-07-16T06:30:18.417Z,1023.55
2018-07-16T06:31:19.002Z,1023.60
2018-07-16T06:32:19.683Z,1023.60
2018-07-16T06:33:20.257Z,1023.60
2018-07-16T06:34:20.834Z,1023.55
2018-07-16T06:35:21.414Z,1023.53
2018-07-16T06:36:21.988Z,1023.57
2018-07-16T06:37:22.573Z,1023.58
2018-07-16T06:38:23.146Z,1023.57
2018-07-16T06:39:23.728Z,1023.49
2018-07-16T06:40:24.431Z,1023.56
2018-07-16T06:41:25.294Z,1023.49
2018-07-16T06:42:25.467Z,1023.56
2018-07-16T06:43:26.048Z,1023.59
2018-07-16T06:44:26.676Z,1023.55
2018-07-16T06:45:27.257Z,1023.56
2018-07-16T06:46:27.880Z,1023.57
2018-07-16T06:47:28.454Z,1023.63
2018-07-16T06:48:29.041Z,1023.51
2018-07-16T06:49:29.620Z,1023.60
2018-07-16T06:50:30.198Z,1023.54
2018-07-16T06:51:30.829Z,1023.57
2018-07-16T06:52:31.410Z,1023.60
2018-07-16T06:53:31.989Z,1023.57
2018-07-16T06:54:32.567Z,1023.64
2018-07-16T06:55:33.152Z,1023.64
2018-07-16T06:56:33.736Z,1023.65
2018-07-16T06:57:34.320Z,1023.64
2018-07-16T06:58:34.894Z,1023.62
2018-07-16T06:59:35.529Z,1023.63
2018-07-16T07:00:36.108Z,1023.70
2018-07-16T07:01:36.686Z,1023.68
2018-07-16T07:02:37.271Z,1023.63
2018-07-16T07:03:37.891Z,1023.63
2018-07-16T07:04:38.522Z,1023.68
2018-07-16T07:05:39.102Z,1023.66
2018-07-16T07:06:39.685Z,1023.66
2018-07-16T07:07:40.265Z,1023.68
2018-07-16T07:08:40.845Z,1023.75
2018-07-16T07:09:41.426Z,1023.75
2018-07-16T07:10:42.007Z,1023.75
2018-07-16T07:11:42.632Z,1023.72
2018-07-16T07:12:43.213Z,1023.75
2018-07-16T07:13:43.790Z,1023.75
2018-07-16T07:14:44.373Z,1023.77
2018-07-16T07:15:44.954Z,1023.79
2018-07-16T07:16:45.583Z,1023.83
2018-07-16T07:17:46.160Z,1023.79
2018-07-16T07:18:46.783Z,1023.87
2018-07-16T07:19:47.362Z,1023.88
2018-07-16T07:20:47.947Z,1023.80
2018-07-16T07:21:48.522Z,1023.82
2018-07-16T07:22:49.105Z,1023.79
2018-07-16T07:23:49.684Z,1023.90
2018-07-16T07:24:50.312Z,1023.89
2018-07-16T07:25:50.895Z,1023.89
2018-07-16T07:26:51.470Z,1023.84
2018-07-16T07:27:52.053Z,1023.89
2018-07-16T07:28:52.675Z,1023.89
2018-07-16T07:29:53.303Z,1024.01
2018-07-16T07:30:53.936Z,1024.02
2018-07-16T07:31:54.511Z,1023.94
2018-07-16T07:32:55.088Z,1023.94
2018-07-16T07:33:55.725Z,1023.95
2018-07-16T07:34:56.267Z,1023.99
2018-07-16T07:35:56.927Z,1024.11
2018-07-16T07:36:57.405Z,1024.00
2018-07-16T07:37:57.988Z,1024.01
2018-07-16T07:38:58.585Z,1024.02
2018-07-16T07:39:59.148Z,1024.00
2018-07-16T07:40:59.775Z,1024.00
2018-07-16T07:42:00.358Z,1024.02
2018-07-16T07:43:00.934Z,1024.01
2018-07-16T07:44:01.519Z,1024.03
2018-07-16T07:45:02.094Z,1024.05
2018-07-16T07:46:02.673Z,1024.07
2018-07-16T07:47:03.248Z,1024.02
2018-07-16T07:48:03.882Z,1023.98
2018-07-16T07:49:04.456Z,1024.11
2018-07-16T07:50:05.084Z,1024.13
2018-07-16T07:51:05.658Z,1024.13
2018-07-16T07:52:06.235Z,1024.08
2018-07-16T07:53:06.821Z,1024.18
2018-07-16T07:54:07.489Z,1024.11
2018-07-16T07:55:08.537Z,1024.15
2018-07-16T07:56:08.566Z,1024.14
2018-07-16T07:57:09.195Z,1024.20
2018-07-16T07:58:09.825Z,1024.12
2018-07-16T07:59:10.405Z,1024.17
2018-07-16T08:00:10.983Z,1024.20
2018-07-16T08:01:11.565Z,1024.19
2018-07-16T08:02:12.142Z,1024.11
2018-07-16T08:03:12.800Z,1024.16
2018-07-16T08:04:13.335Z,1024.23
2018-07-16T08:05:13.962Z,1024.23
2018-07-16T08:06:14.592Z,1024.19
2018-07-16T08:07:15.217Z,1024.18
2018-07-16T08:08:15.798Z,1024.25
2018-07-16T08:09:16.372Z,1024.17
2018-07-16T08:10:16.949Z,1024.25
2018-07-16T08:11:17.532Z,1024.15
2018-07-16T08:12:18.113Z,1024.15
2018-07-16T08:13:18.694Z,1024.15
2018-07-16T08:14:19.376Z,1024.25
2018-07-16T08:15:19.903Z,1024.13
2018-07-16T08:16:20.478Z,1024.18
2018-07-16T08:17:21.066Z,1024.22
2018-07-16T08:18:21.648Z,1024.18
2018-07-16T08:19:22.220Z,1024.13
2018-07-16T08:20:22.849Z,1024.23
2018-07-16T08:21:23.423Z,1024.26
2018-07-16T08:22:24.002Z,1024.24
2018-07-16T08:23:24.576Z,1024.12
2018-07-16T08:24:25.163Z,1024.26
2018-07-16T08:25:25.789Z,1024.16
2018-07-16T08:26:26.371Z,1024.21
2018-07-16T08:27:26.998Z,1024.22
2018-07-16T08:28:27.632Z,1024.27
2018-07-16T08:29:28.258Z,1024.22
2018-07-16T08:30:28.838Z,1024.22
2018-07-16T08:31:29.416Z,1024.26
2018-07-16T08:32:29.990Z,1024.28
2018-07-16T08:33:30.584Z,1024.24
2018-07-16T08:34:31.195Z,1024.31
2018-07-16T08:35:31.790Z,1024.29
2018-07-16T08:36:32.363Z,1024.26
2018-07-16T08:37:32.944Z,1024.27
2018-07-16T08:38:33.526Z,1024.29
2018-07-16T08:39:34.115Z,1024.27
2018-07-16T08:40:34.736Z,1024.33
2018-07-16T08:41:35.316Z,1024.34
2018-07-16T08:42:35.893Z,1024.29
2018-07-16T08:43:36.474Z,1024.33
2018-07-16T08:44:37.148Z,1024.43
2018-07-16T08:45:37.722Z,1024.34
2018-07-16T08:46:38.307Z,1024.38
2018-07-16T08:47:38.888Z,1024.33
2018-07-16T08:48:39.470Z,1024.43
2018-07-16T08:49:40.301Z,1024.38
2018-07-16T08:50:40.967Z,1024.37
2018-07-16T08:51:41.590Z,1024.31
2018-07-16T08:52:42.241Z,1024.39
2018-07-16T08:53:42.752Z,1024.39
2018-07-16T08:54:43.329Z,1024.41
2018-07-16T08:55:43.906Z,1024.45
2018-07-16T08:56:44.494Z,1024.40
2018-07-16T08:57:45.071Z,1024.35
2018-07-16T08:58:45.652Z,1024.42
2018-07-16T08:59:46.236Z,1024.35
2018-07-16T09:00:46.815Z,1024.34
2018-07-16T09:01:47.398Z,1024.34
2018-07-16T09:02:47.981Z,1024.37
2018-07-16T09:03:48.563Z,1024.30
2018-07-16T09:04:49.196Z,1024.32
2018-07-16T09:05:49.777Z,1024.31
2018-07-16T09:06:50.356Z,1024.33
2018-07-16T09:07:50.976Z,1024.36
2018-07-16T09:08:51.759Z,1024.36
2018-07-16T09:09:52.339Z,1024.33
2018-07-16T09:10:52.991Z,1024.35
2018-07-16T09:11:53.499Z,1024.38
2018-07-16T09:12:54.127Z,1024.36
2018-07-16T09:13:54.713Z,1024.37
2018-07-16T09:14:55.285Z,1024.40
2018-07-16T09:15:55.867Z,1024.37
2018-07-16T09:16:56.489Z,1024.45
2018-07-16T09:17:57.065Z,1024.38
2018-07-16T09:18:57.650Z,1024.34
2018-07-16T09:19:58.277Z,1024.36
2018-07-16T09:20:58.905Z,1024.39
2018-07-16T09:21:59.486Z,1024.32
2018-07-16T09:23:00.066Z,1024.36
2018-07-16T09:24:00.860Z,1024.28
2018-07-16T09:25:01.430Z,1024.33
2018-07-16T09:26:02.009Z,1024.35
2018-07-16T09:27:02.591Z,1024.25
2018-07-16T09:28:03.170Z,1024.24
2018-07-16T09:29:03.744Z,1024.26
2018-07-16T09:30:04.323Z,1024.31
2018-07-16T09:31:04.903Z,1024.26
2018-07-16T09:32:05.538Z,1024.31
2018-07-16T09:33:06.127Z,1024.34
2018-07-16T09:34:06.701Z,1024.28
2018-07-16T09:35:07.280Z,1024.38
2018-07-16T09:36:07.864Z,1024.30
2018-07-16T09:37:08.447Z,1024.31
2018-07-16T09:38:09.057Z,1024.31
2018-07-16T09:39:09.683Z,1024.35
2018-07-16T09:40:10.197Z,1024.29
2018-07-16T09:41:10.770Z,1024.29
2018-07-16T09:42:11.404Z,1024.30
2018-07-16T09:43:11.983Z,1024.35
2018-07-16T09:44:12.564Z,1024.30
2018-07-16T09:45:13.145Z,1024.28
2018-07-16T09:46:13.726Z,1024.21
2018-07-16T09:47:14.356Z,1024.30
2018-07-16T09:48:14.989Z,1024.37
2018-07-16T09:49:15.569Z,1024.36
2018-07-16T09:50:16.147Z,1024.32
2018-07-16T09:51:16.728Z,1024.41
2018-07-16T09:52:17.311Z,1024.35
2018-07-16T09:53:17.885Z,1024.38
2018-07-16T09:54:18.472Z,1024.47
2018-07-16T09:55:19.047Z,1024.41
2018-07-16T09:56:19.639Z,1024.46
2018-07-16T09:57:20.210Z,1024.37
2018-07-16T09:58:20.791Z,1024.45
2018-07-16T09:59:21.375Z,1024.48
2018-07-16T10:00:21.962Z,1024.53
2018-07-16T10:01:22.587Z,1024.43
2018-07-16T10:02:23.216Z,1024.49
2018-07-16T10:03:23.794Z,1024.48
2018-07-16T10:04:24.371Z,1024.51
2018-07-16T10:05:24.955Z,1024.51
2018-07-16T10:06:25.534Z,1024.47
2018-07-16T10:07:26.161Z,1024.53
2018-07-16T10:08:26.808Z,1024.51
2018-07-16T10:09:27.329Z,1024.47
2018-07-16T10:10:27.909Z,1024.50
2018-07-16T10:11:28.492Z,1024.46
2018-07-16T10:12:29.068Z,1024.50
2018-07-16T10:13:29.654Z,1024.61
2018-07-16T10:14:30.235Z,1024.60
2018-07-16T10:15:30.816Z,1024.58
2018-07-16T10:16:31.400Z,1024.63
2018-07-16T10:17:31.974Z,1024.62
2018-07-16T10:18:32.556Z,1024.66
2018-07-16T10:19:33.146Z,1024.63
2018-07-16T10:20:33.921Z,1024.68
2018-07-16T10:21:34.458Z,1024.59
2018-07-16T10:22:35.041Z,1024.60
2018-07-16T10:23:35.625Z,1024.62
2018-07-16T10:24:36.207Z,1024.65
2018-07-16T10:25:36.794Z,1024.69
2018-07-16T10:26:37.410Z,1024.61
2018-07-16T10:27:38.033Z,1024.64
2018-07-16T10:28:38.657Z,1024.65
2018-07-16T10:29:39.292Z,1024.69
2018-07-16T10:30:39.874Z,1024.61
2018-07-16T10:31:40.453Z,1024.62
2018-07-16T10:32:41.036Z,1024.58
2018-07-16T10:33:41.640Z,1024.64
2018-07-16T10:34:42.199Z,1024.58
2018-07-16T10:35:42.776Z,1024.68
2018-07-16T10:36:43.359Z,1024.70
2018-07-16T10:37:43.939Z,1024.73
2018-07-16T10:38:44.574Z,1024.76
2018-07-16T10:39:45.155Z,1024.73
2018-07-16T10:40:45.732Z,1024.82
2018-07-16T10:41:46.415Z,1024.70
2018-07-16T10:42:46.988Z,1024.76
2018-07-16T10:43:47.573Z,1024.65
2018-07-16T10:44:48.203Z,1024.70
2018-07-16T10:45:48.777Z,1024.67
2018-07-16T10:46:49.364Z,1024.65
2018-07-16T10:47:49.940Z,1024.68
2018-07-16T10:48:50.521Z,1024.59
2018-07-16T10:49:51.138Z,1024.63
2018-07-16T10:50:51.680Z,1024.69
2018-07-16T10:51:52.269Z,1024.69
2018-07-16T10:52:52.855Z,1024.66
2018-07-16T10:53:53.428Z,1024.62
2018-07-16T10:54:54.013Z,1024.61
2018-07-16T10:55:54.590Z,1024.64
2018-07-16T10:56:55.177Z,1024.60
2018-07-16T10:57:55.810Z,1024.61
2018-07-16T10:58:56.437Z,1024.57
2018-07-16T10:59:57.012Z,1024.63
2018-07-16T11:00:57.590Z,1024.53
2018-07-16T11:01:58.261Z,1024.52
2018-07-16T11:02:58.866Z,1024.54
2018-07-16T11:03:59.385Z,1024.52
2018-07-16T11:04:59.967Z,1024.53
2018-07-16T11:06:00.547Z,1024.47
2018-07-16T11:07:01.172Z,1024.47
2018-07-16T11:08:01.757Z,1024.48
2018-07-16T11:09:02.336Z,1024.49
2018-07-16T11:10:02.917Z,1024.44
2018-07-16T11:11:03.500Z,1024.37
2018-07-16T11:12:04.084Z,1024.44
2018-07-16T11:13:04.663Z,1024.38
2018-07-16T11:14:05.246Z,1024.47
2018-07-16T11:15:05.952Z,1024.42
2018-07-16T11:16:06.464Z,1024.36
2018-07-16T11:17:07.043Z,1024.38
2018-07-16T11:18:07.618Z,1024.45
2018-07-16T11:19:08.253Z,1024.33
2018-07-16T11:20:08.835Z,1024.49
2018-07-16T11:21:09.415Z,1024.38
2018-07-16T11:22:10.045Z,1024.38
2018-07-16T11:23:10.624Z,1024.40
2018-07-16T11:24:11.257Z,1024.49
2018-07-16T11:25:11.834Z,1024.45
2018-07-16T11:26:12.417Z,1024.42
2018-07-16T11:27:12.998Z,1024.45
2018-07-16T11:28:13.581Z,1024.40
2018-07-16T11:29:14.162Z,1024.41
2018-07-16T11:30:14.794Z,1024.48
2018-07-16T11:31:15.519Z,1024.43
2018-07-16T11:32:16.150Z,1024.37
2018-07-16T11:33:16.732Z,1024.38
2018-07-16T11:34:17.322Z,1024.37
2018-07-16T11:35:17.956Z,1024.41
2018-07-16T11:36:18.528Z,1024.40
2018-07-16T11:37:19.110Z,1024.37
2018-07-16T11:38:19.692Z,1024.33
2018-07-16T11:39:20.272Z,1024.42
2018-07-16T11:40:20.849Z,1024.32
2018-07-16T11:41:21.432Z,1024.36
2018-07-16T11:42:22.009Z,1024.42
2018-07-16T11:43:22.600Z,1024.37
2018-07-16T11:44:23.175Z,1024.36
2018-07-16T11:45:23.758Z,1024.33
2018-07-16T11:46:24.340Z,1024.34
2018-07-16T11:47:24.927Z,1024.32
2018-07-16T11:48:25.549Z,1024.34
2018-07-16T11:49:26.124Z,1024.32
2018-07-16T11:50:26.754Z,1024.32
2018-07-16T11:51:27.385Z,1024.28
2018-07-16T11:52:27.964Z,1024.27
2018-07-16T11:53:28.747Z,1024.23
2018-07-16T11:54:29.325Z,1024.28
2018-07-16T11:55:29.948Z,1024.25
2018-07-16T11:56:30.527Z,1024.22
2018-07-16T11:57:31.115Z,1024.23
2018-07-16T11:58:31.689Z,1024.20
2018-07-16T11:59:32.273Z,1024.21
2018-07-16T12:00:32.856Z,1024.23
2018-07-16T12:01:33.441Z,1024.11
2018-07-16T12:02:34.018Z,1024.14
2018-07-16T12:03:34.678Z,1024.11
2018-07-16T12:04:40.240Z,1024.19
2018-07-16T12:05:40.824Z,1024.15
2018-07-16T12:06:41.407Z,1024.16
2018-07-16T12:07:41.990Z,1024.18
2018-07-16T12:08:42.617Z,1024.21
2018-07-16T12:09:43.198Z,1024.18
2018-07-16T12:10:43.782Z,1024.35
2018-07-16T12:11:44.415Z,1024.30
2018-07-16T12:12:45.071Z,1024.25